Time,TemperatureF,DewpointF,PressureIn,WindDirection,WindDirectionDegrees,WindSpeedMPH,WindSpeedGustMPH,Humidity,HourlyPrecipIn,Conditions,Clouds,dailyrainin,SoftwareType,DateUTC
2013-03-07 00:13:00,57.8,48.0,30.15,NNE,12,8.0,17.0,70,0.00,,,0.00,weatherlink.com 1.10,2013-03-07 05:13:00,
2013-03-07 00:28:00,56.9,47.0,30.15,North,2,7.0,15.0,70,0.00,,,0.00,weatherlink.com 1.10,2013-03-07 05:28:00,
2013-03-07 00:43:00,56.0,47.0,30.14,NNW,348,5.0,14.0,72,0.00,,,0.00,weatherlink.com 1.10,2013-03-07 05:43:00,
2013-03-07 00:58:00,55.1,47.0,30.14,North,353,6.0,12.0,73,0.00,,,0.00,weatherlink.com 1.10,2013-03-07 05:58:00,
2013-03-07 01:13:00,54.5,46.0,30.14,North,359,5.0,12.0,73,0.00,,,0.00,weatherlink.com 1.10,2013-03-07 06:13:00,
2013-03-07 01:28:00,54.1,46.0,30.14,North,360,2.0,8.0,74,0.00,,,0.00,weatherlink.com 1.10,2013-03-07 06:28:00,
2013-03-07 01:43:00,53.8,46.0,30.14,North,349,1.0,10.0,74,0.00,,,0.00,weatherlink.com 1.10,2013-03-07 06:43:00,
2013-03-07 01:58:00,53.6,46.0,30.14,NNW,337,1.0,7.0,74,0.00,,,0.00,weatherlink.com 1.10,2013-03-07 06:58:00,
2013-03-07 02:13:00,53.4,46.0,30.14,North,4,5.0,8.0,75,0.00,,,0.00,weatherlink.com 1.10,2013-03-07 07:13:00,
2013-03-07 02:28:00,53.3,46.0,30.13,North,357,4.0,8.0,75,0.00,,,0.00,weatherlink.com 1.10,2013-03-07 07:28:00,
2013-03-07 02:44:00,53.4,45.0,30.13,North,5,1.0,9.0,74,0.00,,,0.00,weatherlink.com 1.10,2013-03-07 07:44:00,
2013-03-07 02:59:00,53.3,45.0,30.13,North,7,6.0,11.0,74,0.00,,,0.00,weatherlink.com 1.10,2013-03-07 07:59:00,
2013-03-07 03:14:00,53.1,45.0,30.12,North,4,4.0,12.0,74,0.00,,,0.00,weatherlink.com 1.10,2013-03-07 08:14:00,
2013-03-07 03:29:00,52.9,44.0,30.12,NNW,347,5.0,13.0,73,0.00,,,0.00,weatherlink.com 1.10,2013-03-07 08:29:00,
2013-03-07 03:44:00,52.5,43.0,30.12,NNE,22,7.0,11.0,71,0.00,,,0.00,weatherlink.com 1.10,2013-03-07 08:44:00,
2013-03-07 03:59:00,52.1,43.0,30.12,North,11,9.0,14.0,70,0.00,,,0.00,weatherlink.com 1.10,2013-03-07 08:59:00,
2013-03-07 04:14:00,51.7,41.0,30.12,North,6,12.0,15.0,68,0.00,,,0.00,weatherlink.com 1.10,2013-03-07 09:14:00,
2013-03-07 04:29:00,51.2,41.0,30.12,North,8,3.0,12.0,67,0.00,,,0.00,weatherlink.com 1.10,2013-03-07 09:29:00,
2013-03-07 04:44:00,50.7,40.0,30.12,NNE,20,5.0,15.0,66,0.00,,,0.00,weatherlink.com 1.10,2013-03-07 09:44:00,
2013-03-07 04:59:00,50.3,39.0,30.14,NE,36,1.0,11.0,66,0.00,,,0.00,weatherlink.com 1.10,2013-03-07 09:59:00,
2013-03-07 05:14:00,49.9,38.0,30.14,NNE,26,8.0,12.0,65,0.00,,,0.00,weatherlink.com 1.10,2013-03-07 10:14:00,
2013-03-07 05:29:00,49.6,38.0,30.15,North,4,3.0,11.0,65,0.00,,,0.00,weatherlink.com 1.10,2013-03-07 10:29:00,
2013-03-07 05:44:00,49.2,38.0,30.16,North,6,2.0,9.0,65,0.00,,,0.00,weatherlink.com 1.10,2013-03-07 10:44:00,
2013-03-07 05:59:00,49.1,38.0,30.17,North,10,6.0,7.0,65,0.00,,,0.00,weatherlink.com 1.10,2013-03-07 10:59:00,
2013-03-07 06:14:00,48.8,37.0,30.18,NNW,346,5.0,8.0,65,0.00,,,0.00,weatherlink.com 1.10,2013-03-07 11:14:00,
2013-03-07 06:29:00,48.5,38.0,30.18,North,352,3.0,9.0,66,0.00,,,0.00,weatherlink.com 1.10,2013-03-07 11:29:00,
2013-03-07 06:44:00,48.1,37.0,30.19,North,352,1.0,5.0,66,0.00,,,0.00,weatherlink.com 1.10,2013-03-07 11:44:00,
2013-03-07 06:59:00,47.7,37.0,30.19,North,352,1.0,5.0,67,0.00,,,0.00,weatherlink.com 1.10,2013-03-07 11:59:00,
2013-03-07 07:14:00,47.5,37.0,30.20,North,353,2.0,6.0,67,0.00,,,0.00,weatherlink.com 1.10,2013-03-07 12:14:00,
2013-03-07 07:29:00,47.6,37.0,30.20,North,355,3.0,6.0,68,0.00,,,0.00,weatherlink.com 1.10,2013-03-07 12:29:00,
2013-03-07 07:44:00,48.3,38.0,30.20,NNE,16,3.0,8.0,68,0.00,,,0.00,weatherlink.com 1.10,2013-03-07 12:44:00,
2013-03-07 07:59:00,49.4,38.0,30.21,NNE,16,7.0,13.0,66,0.00,,,0.00,weatherlink.com 1.10,2013-03-07 12:59:00,
2013-03-07 08:14:00,50.5,39.0,30.21,NNE,20,9.0,13.0,65,0.00,,,0.00,weatherlink.com 1.10,2013-03-07 13:14:00,
2013-03-07 08:29:00,51.4,39.0,30.21,NNE,24,10.0,14.0,63,0.00,,,0.00,weatherlink.com 1.10,2013-03-07 13:29:00,
2013-03-07 08:45:00,52.4,40.0,30.21,NE,38,9.0,13.0,62,0.00,,,0.00,weatherlink.com 1.10,2013-03-07 13:45:00,
2013-03-07 08:59:00,53.5,40.0,30.22,NE,43,5.0,14.0,61,0.00,,,0.00,weatherlink.com 1.10,2013-03-07 13:59:00,
2013-03-07 09:14:00,54.4,40.0,30.22,NNE,29,6.0,14.0,59,0.00,,,0.00,weatherlink.com 1.10,2013-03-07 14:14:00,
2013-03-07 09:29:00,55.5,41.0,30.22,NNE,16,10.0,14.0,59,0.00,,,0.00,weatherlink.com 1.10,2013-03-07 14:29:00,
2013-03-07 09:45:00,56.4,41.0,30.23,NNE,30,9.0,12.0,57,0.00,,,0.00,weatherlink.com 1.10,2013-03-07 14:45:00,
2013-03-07 10:00:00,57.4,42.0,30.23,NE,42,10.0,14.0,57,0.00,,,0.00,weatherlink.com 1.10,2013-03-07 15:00:00,
2013-03-07 10:15:00,58.6,42.0,30.23,NNE,33,7.0,10.0,55,0.00,,,0.00,weatherlink.com 1.10,2013-03-07 15:15:00,
2013-03-07 10:30:00,59.8,42.0,30.23,NNE,22,12.0,14.0,53,0.00,,,0.00,weatherlink.com 1.10,2013-03-07 15:30:00,
2013-03-07 10:45:00,61.3,43.0,30.23,North,6,9.0,13.0,51,0.00,,,0.00,weatherlink.com 1.10,2013-03-07 15:45:00,
2013-03-07 11:00:00,61.9,43.0,30.23,NNE,20,5.0,15.0,50,0.00,,,0.00,weatherlink.com 1.10,2013-03-07 16:00:00,
2013-03-07 11:30:00,62.5,42.0,30.22,NNW,335,1.0,9.0,47,0.00,,,0.00,weatherlink.com 1.10,2013-03-07 16:30:00,
2013-03-07 11:45:00,62.4,42.0,30.22,NNE,19,7.0,8.0,48,0.00,,,0.00,weatherlink.com 1.10,2013-03-07 16:45:00,
2013-03-07 12:00:00,64.3,43.0,30.22,North,8,2.0,9.0,46,0.00,,,0.00,weatherlink.com 1.10,2013-03-07 17:00:00,
2013-03-07 12:15:00,64.1,43.0,30.21,North,350,6.0,9.0,46,0.00,,,0.00,weatherlink.com 1.10,2013-03-07 17:15:00,
2013-03-07 12:30:00,63.4,43.0,30.21,NW,310,4.0,14.0,48,0.00,,,0.00,weatherlink.com 1.10,2013-03-07 17:30:00,
2013-03-07 12:45:00,61.8,43.0,30.21,WNW,298,11.0,13.0,50,0.00,,,0.00,weatherlink.com 1.10,2013-03-07 17:45:00,
2013-03-07 13:00:00,61.8,43.0,30.20,West,275,9.0,14.0,50,0.00,,,0.00,weatherlink.com 1.10,2013-03-07 18:00:00,
2013-03-07 13:15:00,61.6,43.0,30.20,NW,319,8.0,16.0,51,0.00,,,0.00,weatherlink.com 1.10,2013-03-07 18:15:00,
2013-03-07 13:30:00,61.6,44.0,30.19,West,268,14.0,17.0,52,0.00,,,0.00,weatherlink.com 1.10,2013-03-07 18:30:00,
2013-03-07 13:45:00,61.2,43.0,30.19,West,274,15.0,21.0,52,0.00,,,0.00,weatherlink.com 1.10,2013-03-07 18:45:00,
2013-03-07 14:00:00,61.2,44.0,30.18,West,265,8.0,19.0,53,0.00,,,0.00,weatherlink.com 1.10,2013-03-07 19:00:00,
2013-03-07 14:15:00,62.1,45.0,30.17,West,281,15.0,18.0,53,0.00,,,0.00,weatherlink.com 1.10,2013-03-07 19:15:00,
2013-03-07 14:30:00,62.0,44.0,30.16,NW,312,9.0,19.0,53,0.00,,,0.00,weatherlink.com 1.10,2013-03-07 19:30:00,
2013-03-07 15:00:00,61.8,46.0,30.16,NW,310,9.0,18.0,56,0.00,,,0.00,weatherlink.com 1.10,2013-03-07 20:00:00,
2013-03-07 15:15:00,61.8,47.0,30.16,WNW,291,14.0,21.0,58,0.00,,,0.00,weatherlink.com 1.10,2013-03-07 20:15:00,
2013-03-07 15:30:00,62.1,46.0,30.16,WNW,294,11.0,19.0,57,0.00,,,0.00,weatherlink.com 1.10,2013-03-07 20:30:00,
2013-03-07 15:45:00,61.7,47.0,30.16,WNW,291,4.0,19.0,59,0.00,,,0.00,weatherlink.com 1.10,2013-03-07 20:45:00,
2013-03-07 16:00:00,62.4,48.0,30.17,WNW,289,16.0,18.0,59,0.00,,,0.00,weatherlink.com 1.10,2013-03-07 21:00:00,
2013-03-07 16:15:00,62.2,48.0,30.16,WNW,283,8.0,17.0,60,0.00,,,0.00,weatherlink.com 1.10,2013-03-07 21:15:00,
2013-03-07 16:30:00,62.0,48.0,30.16,WNW,285,16.0,18.0,60,0.00,,,0.00,weatherlink.com 1.10,2013-03-07 21:30:00,
2013-03-07 16:45:00,61.7,48.0,30.17,West,277,11.0,19.0,61,0.00,,,0.00,weatherlink.com 1.10,2013-03-07 21:45:00,
2013-03-07 17:00:00,61.9,48.0,30.16,WNW,301,9.0,16.0,61,0.00,,,0.00,weatherlink.com 1.10,2013-03-07 22:00:00,
2013-03-07 17:15:00,61.8,49.0,30.17,WNW,299,11.0,18.0,63,0.00,,,0.00,weatherlink.com 1.10,2013-03-07 22:15:00,
2013-03-07 17:30:00,61.8,49.0,30.17,WNW,294,9.0,16.0,63,0.00,,,0.00,weatherlink.com 1.10,2013-03-07 22:30:00,
2013-03-07 17:45:00,62.1,49.0,30.17,West,276,7.0,13.0,62,0.00,,,0.00,weatherlink.com 1.10,2013-03-07 22:45:00,
2013-03-07 18:00:00,61.8,49.0,30.17,NW,317,4.0,14.0,63,0.00,,,0.00,weatherlink.com 1.10,2013-03-07 23:00:00,
2013-03-07 18:30:00,60.4,49.0,30.18,WNW,297,3.0,14.0,66,0.00,,,0.00,weatherlink.com 1.10,2013-03-07 23:30:00,
2013-03-07 18:45:00,59.7,49.0,30.18,NW,312,3.0,9.0,68,0.00,,,0.00,weatherlink.com 1.10,2013-03-07 23:45:00,
2013-03-07 19:00:00,59.7,50.0,30.19,WNW,301,3.0,12.0,70,0.00,,,0.00,weatherlink.com 1.10,2013-03-08 00:00:00,
2013-03-07 19:15:00,59.3,50.0,30.19,NW,318,6.0,10.0,70,0.00,,,0.00,weatherlink.com 1.10,2013-03-08 00:15:00,
2013-03-07 19:30:00,58.9,49.0,30.19,WNW,303,4.0,9.0,71,0.00,,,0.00,weatherlink.com 1.10,2013-03-08 00:30:00,
2013-03-07 19:45:00,58.7,50.0,30.19,WNW,292,7.0,10.0,72,0.00,,,0.00,weatherlink.com 1.10,2013-03-08 00:45:00,
2013-03-07 20:00:00,58.7,50.0,30.20,NW,312,4.0,11.0,72,0.00,,,0.00,weatherlink.com 1.10,2013-03-08 01:00:00,
2013-03-07 20:15:00,58.7,50.0,30.20,WNW,303,8.0,10.0,72,0.00,,,0.00,weatherlink.com 1.10,2013-03-08 01:15:00,
2013-03-07 20:30:00,58.7,50.0,30.20,NW,307,3.0,7.0,73,0.00,,,0.00,weatherlink.com 1.10,2013-03-08 01:30:00,
2013-03-07 20:45:00,58.7,50.0,30.20,NW,323,7.0,7.0,73,0.00,,,0.00,weatherlink.com 1.10,2013-03-08 01:45:00,
2013-03-07 21:00:00,58.7,50.0,30.20,North,360,5.0,10.0,73,0.00,,,0.00,weatherlink.com 1.10,2013-03-08 02:00:00,
2013-03-07 21:15:00,58.7,50.0,30.20,NW,306,3.0,9.0,74,0.00,,,0.00,weatherlink.com 1.10,2013-03-08 02:15:00,
2013-03-07 21:30:00,58.9,51.0,30.21,NNW,336,3.0,12.0,74,0.00,,,0.00,weatherlink.com 1.10,2013-03-08 02:30:00,
2013-03-07 21:45:00,58.9,51.0,30.21,WNW,296,3.0,7.0,75,0.00,,,0.00,weatherlink.com 1.10,2013-03-08 02:45:00,
2013-03-07 22:00:00,58.9,51.0,30.21,NW,324,2.0,6.0,76,0.00,,,0.00,weatherlink.com 1.10,2013-03-08 03:00:00,
2013-03-07 22:15:00,58.5,51.0,30.21,NW,324,1.0,6.0,76,0.00,,,0.00,weatherlink.com 1.10,2013-03-08 03:15:00,
2013-03-07 22:30:00,58.2,51.0,30.21,NW,325,3.0,6.0,78,0.00,,,0.00,weatherlink.com 1.10,2013-03-08 03:30:00,
2013-03-07 22:45:00,57.5,51.0,30.20,NW,326,2.0,6.0,78,0.00,,,0.00,weatherlink.com 1.10,2013-03-08 03:45:00,
2013-03-07 23:00:00,56.8,50.0,30.20,NW,326,3.0,6.0,79,0.00,,,0.00,weatherlink.com 1.10,2013-03-08 04:00:00,
2013-03-07 23:15:00,56.3,50.0,30.21,NNW,330,1.0,6.0,80,0.00,,,0.00,weatherlink.com 1.10,2013-03-08 04:15:00,
2013-03-07 23:30:00,55.7,50.0,30.20,NNW,330,2.0,5.0,80,0.00,,,0.00,weatherlink.com 1.10,2013-03-08 04:30:00,
2013-03-07 23:45:00,55.2,50.0,30.20,NNW,330,0.0,6.0,81,0.00,,,0.00,weatherlink.com 1.10,2013-03-08 04:45:00,